Time;durP1;ratioP1;P1;durP2;ratioP2;P2;SDS_P1;SDS_P2;PMS_P1;PMS_P2;Temp;Humidity;BMP_temperature;BMP_pressure;BME280_temperature;BME280_humidity;BME280_pressure;Samples;Min_cycle;Max_cycle;Signal;HPM_P1;HPM_P2
2023/05/13 00:00:01;;;;;;;8.23;7.25;;;14.10;99.90;;;;;;5072626;28;20219;-77
2023/05/13 00:02:28;;;;;;;9.47;8.30;;;14.20;99.90;;;;;;5035051;28;1129452;-78
2023/05/13 00:04:55;;;;;;;8.85;7.65;;;14.10;99.90;;;;;;5071634;28;20853;-76
2023/05/13 00:07:23;;;;;;;11.50;10.30;;;14.00;99.90;;;;;;5065972;28;20210;-77
2023/05/13 00:09:50;;;;;;;14.10;9.85;;;14.00;99.90;;;;;;5076247;28;20223;-77
2023/05/13 00:12:17;;;;;;;14.43;9.48;;;13.90;99.90;;;;;;5076503;28;20254;-79
2023/05/13 00:14:44;;;;;;;9.90;9.00;;;13.90;99.90;;;;;;5076099;28;20214;-77
2023/05/13 00:17:11;;;;;;;9.50;8.60;;;13.90;99.90;;;;;;5077762;28;20199;-76
2023/05/13 00:19:38;;;;;;;10.88;9.43;;;13.80;99.90;;;;;;5083773;28;20627;-76
2023/05/13 00:22:05;;;;;;;10.13;8.82;;;13.80;99.90;;;;;;5080827;28;20213;-77
2023/05/13 00:24:33;;;;;;;9.90;8.70;;;13.80;99.90;;;;;;5073363;28;20234;-78
2023/05/13 00:27:00;;;;;;;10.20;9.15;;;13.80;99.90;;;;;;5074295;28;20253;-77
2023/05/13 00:29:27;;;;;;;13.57;10.95;;;13.70;99.90;;;;;;5063076;28;20299;-77
2023/05/13 00:31:54;;;;;;;11.93;10.68;;;13.70;99.90;;;;;;5075810;28;20234;-78
2023/05/13 00:34:21;;;;;;;10.05;8.57;;;13.70;99.90;;;;;;5071676;28;20195;-77
2023/05/13 00:36:48;;;;;;;12.18;8.68;;;13.60;99.90;;;;;;5063154;28;20668;-76
2023/05/13 00:39:14;;;;;;;10.13;9.23;;;13.60;99.90;;;;;;5065374;28;20301;-77
2023/05/13 00:41:43;;;;;;;9.98;8.77;;;13.60;99.90;;;;;;5065450;28;20314;-77
2023/05/13 00:44:10;;;;;;;9.38;8.30;;;13.60;99.90;;;;;;5070766;28;20286;-76
2023/05/13 00:46:37;;;;;;;15.27;9.63;;;13.60;99.90;;;;;;5069086;28;20206;-78
2023/05/13 00:49:05;;;;;;;12.65;9.45;;;13.50;99.90;;;;;;5070800;28;20309;-76
2023/05/13 00:51:32;;;;;;;11.40;10.27;;;13.50;99.90;;;;;;5066795;28;20207;-76
2023/05/13 00:53:59;;;;;;;10.48;9.38;;;13.50;99.90;;;;;;5066611;28;20206;-76
2023/05/13 00:56:26;;;;;;;10.23;9.32;;;13.50;99.90;;;;;;5067179;28;20305;-77
2023/05/13 00:58:55;;;;;;;11.73;9.55;;;13.40;99.90;;;;;;5084875;28;20291;-78
2023/05/13 01:01:38;;;;;;;11.02;9.93;;;13.50;99.90;;;;;;5078489;28;20214;-77
2023/05/13 01:04:18;;;;;;;12.23;10.18;;;13.50;99.90;;;;;;5075530;28;20285;-77
2023/05/13 01:06:56;;;;;;;11.90;9.45;;;13.30;99.90;;;;;;5052649;28;20294;-78
2023/05/13 01:09:34;;;;;;;9.68;8.68;;;13.30;99.90;;;;;;5068611;28;20716;-77
2023/05/13 01:12:07;;;;;;;11.30;10.20;;;13.20;99.90;;;;;;5072825;28;20684;-79
2023/05/13 01:14:40;;;;;;;12.98;10.60;;;13.20;99.90;;;;;;5075467;28;20699;-78
2023/05/13 01:17:14;;;;;;;12.63;11.27;;;13.10;99.90;;;;;;5073109;28;20296;-77
2023/05/13 01:19:44;;;;;;;11.63;10.43;;;13.10;99.90;;;;;;5066475;28;20231;-77
2023/05/13 01:22:13;;;;;;;13.77;10.60;;;13.10;99.90;;;;;;5063005;28;20245;-77
2023/05/13 01:24:39;;;;;;;13.85;12.05;;;13.00;99.90;;;;;;5076856;28;20217;-77
2023/05/13 01:27:07;;;;;;;12.10;10.88;;;12.90;99.90;;;;;;5066388;28;20237;-76
2023/05/13 01:29:35;;;;;;;12.55;11.32;;;13.00;99.90;;;;;;5094382;28;20233;-77
2023/05/13 01:32:03;;;;;;;11.85;10.57;;;12.90;99.90;;;;;;5078246;28;20284;-76
2023/05/13 01:34:31;;;;;;;16.77;11.20;;;12.90;99.90;;;;;;5072581;28;20202;-76
2023/05/13 01:36:58;;;;;;;11.00;10.00;;;12.80;99.90;;;;;;5072853;28;20289;-77
2023/05/13 01:39:28;;;;;;;12.20;11.00;;;12.80;99.90;;;;;;5076239;28;20313;-78
2023/05/13 01:41:56;;;;;;;14.00;12.50;;;12.80;99.90;;;;;;5075069;28;20301;-77
2023/05/13 01:44:23;;;;;;;19.70;11.85;;;12.70;99.90;;;;;;5069822;28;20296;-77
2023/05/13 01:46:52;;;;;;;15.18;11.90;;;12.70;99.90;;;;;;5064368;28;20242;-76
2023/05/13 01:49:19;;;;;;;12.85;11.35;;;12.60;99.90;;;;;;5067361;28;20223;-76
2023/05/13 01:51:46;;;;;;;22.80;11.63;;;12.60;99.90;;;;;;5070017;28;20665;-77
2023/05/13 01:54:12;;;;;;;15.73;11.60;;;12.60;99.90;;;;;;5072913;28;20220;-76
2023/05/13 01:56:42;;;;;;;12.77;11.40;;;12.50;99.90;;;;;;5065790;28;20207;-77
2023/05/13 01:59:09;;;;;;;13.88;12.48;;;12.50;99.90;;;;;;5061069;28;20223;-76
2023/05/13 02:01:36;;;;;;;12.30;11.10;;;12.50;99.90;;;;;;5070919;28;20222;-76
2023/05/13 02:04:03;;;;;;;12.88;11.68;;;12.50;99.90;;;;;;5066936;28;20209;-76
2023/05/13 02:06:32;;;;;;;13.00;11.68;;;12.50;99.90;;;;;;5068250;28;20212;-76
2023/05/13 02:08:59;;;;;;;13.45;12.05;;;12.50;99.90;;;;;;5069011;28;20237;-77
2023/05/13 02:11:26;;;;;;;13.93;12.52;;;12.40;99.90;;;;;;5068175;28;20240;-78
2023/05/13 02:13:54;;;;;;;13.90;12.63;;;12.40;99.90;;;;;;5074527;28;20206;-78
2023/05/13 02:16:22;;;;;;;14.50;13.02;;;12.40;99.90;;;;;;5069347;28;20195;-77
2023/05/13 02:18:50;;;;;;;13.45;12.35;;;12.30;99.90;;;;;;5068355;28;20202;-77
2023/05/13 02:21:17;;;;;;;12.85;11.65;;;12.30;99.90;;;;;;5064292;28;20672;-78
2023/05/13 02:23:43;;;;;;;28.15;12.70;;;12.30;99.90;;;;;;5062772;28;20230;-77
2023/05/13 02:26:10;;;;;;;14.40;13.10;;;12.30;99.90;;;;;;5073154;28;20277;-76
2023/05/13 02:28:37;;;;;;;19.45;13.45;;;12.30;99.90;;;;;;5068917;28;20204;-76
2023/05/13 02:31:06;;;;;;;15.02;13.43;;;12.20;99.90;;;;;;5067702;28;20292;-77
2023/05/13 02:33:33;;;;;;;19.95;15.57;;;12.20;99.90;;;;;;5069053;28;20202;-76
2023/05/13 02:36:00;;;;;;;16.33;14.82;;;12.10;99.90;;;;;;5073148;28;20280;-76
2023/05/13 02:38:27;;;;;;;14.30;12.88;;;12.10;99.90;;;;;;5073767;28;20208;-77
2023/05/13 02:40:54;;;;;;;16.95;14.38;;;12.10;99.90;;;;;;5081279;28;20929;-76
2023/05/13 02:43:22;;;;;;;14.68;13.13;;;12.10;99.90;;;;;;5072183;28;20210;-77
2023/05/13 02:45:49;;;;;;;14.57;13.07;;;12.00;99.90;;;;;;5073387;28;20202;-76
2023/05/13 02:48:17;;;;;;;17.92;13.90;;;12.00;99.90;;;;;;5072765;28;20233;-77
2023/05/13 02:50:44;;;;;;;14.35;12.95;;;12.00;99.90;;;;;;5067039;28;20226;-77
2023/05/13 02:53:11;;;;;;;13.68;12.48;;;12.00;99.90;;;;;;5071238;28;20286;-75
2023/05/13 02:55:38;;;;;;;15.88;13.60;;;12.00;99.90;;;;;;5061233;28;20285;-76
2023/05/13 02:58:05;;;;;;;14.95;13.45;;;11.90;99.90;;;;;;5070647;28;20217;-76
2023/05/13 03:00:33;;;;;;;16.63;15.13;;;11.90;99.90;;;;;;5069915;28;20307;-77
2023/05/13 03:03:02;;;;;;;16.08;14.43;;;11.80;99.90;;;;;;5067397;28;20593;-77
2023/05/13 03:05:30;;;;;;;14.88;13.48;;;11.80;99.90;;;;;;5064126;28;20569;-78
2023/05/13 03:07:57;;;;;;;16.30;14.70;;;11.70;99.90;;;;;;5073835;28;20284;-76
2023/05/13 03:10:24;;;;;;;18.85;12.95;;;11.70;99.90;;;;;;5066793;28;20267;-77
2023/05/13 03:12:51;;;;;;;18.52;14.77;;;11.70;99.90;;;;;;5079562;28;20292;-78
2023/05/13 03:15:18;;;;;;;17.75;14.73;;;11.60;99.90;;;;;;5069574;28;20229;-76
2023/05/13 03:17:45;;;;;;;16.50;14.77;;;11.60;99.90;;;;;;5072395;28;20264;-76
2023/05/13 03:20:12;;;;;;;18.48;15.05;;;11.60;99.90;;;;;;5077128;28;20216;-76
2023/05/13 03:22:55;;;;;;;15.02;13.50;;;11.60;99.90;;;;;;5093264;28;20242;-76
2023/05/13 03:25:22;;;;;;;19.83;14.13;;;11.60;99.90;;;;;;5076711;28;20202;-76
2023/05/13 03:27:49;;;;;;;16.88;15.07;;;11.60;99.90;;;;;;5060790;28;20202;-77
2023/05/13 03:30:15;;;;;;;16.85;13.82;;;11.60;99.90;;;;;;5061310;28;20767;-76
2023/05/13 03:32:43;;;;;;;14.70;13.23;;;11.60;99.90;;;;;;5066918;28;20228;-78
2023/05/13 03:35:09;;;;;;;16.20;14.30;;;11.50;99.90;;;;;;5066868;28;20216;-78
2023/05/13 03:37:36;;;;;;;15.20;13.75;;;11.50;99.90;;;;;;5073024;28;20326;-76
2023/05/13 03:40:06;;;;;;;16.33;14.63;;;11.50;99.90;;;;;;5062839;28;20248;-76
2023/05/13 03:42:33;;;;;;;16.25;14.20;;;11.50;99.90;;;;;;5069195;28;20315;-77
2023/05/13 03:45:00;;;;;;;15.82;14.30;;;11.50;99.90;;;;;;5067292;28;20235;-77
2023/05/13 03:47:27;;;;;;;16.55;14.48;;;11.50;99.90;;;;;;5058040;28;20284;-77
2023/05/13 03:49:53;;;;;;;14.55;13.05;;;11.50;99.90;;;;;;5065722;28;20732;-79
2023/05/13 03:52:20;;;;;;;14.80;13.40;;;11.50;99.90;;;;;;5070142;28;20202;-76
2023/05/13 03:54:47;;;;;;;16.98;15.27;;;11.60;99.90;;;;;;5069251;28;20298;-76
2023/05/13 03:57:15;;;;;;;17.55;14.82;;;11.50;99.90;;;;;;5065295;28;20309;-77
2023/05/13 03:59:42;;;;;;;16.30;14.70;;;11.60;99.90;;;;;;5059010;28;20235;-76
2023/05/13 04:02:09;;;;;;;16.20;14.48;;;11.60;99.90;;;;;;5065652;28;20572;-75
2023/05/13 04:04:36;;;;;;;18.55;15.90;;;11.60;99.90;;;;;;5064862;28;20199;-76
2023/05/13 04:07:03;;;;;;;16.45;13.98;;;11.60;99.90;;;;;;5066399;28;20292;-78
2023/05/13 04:09:30;;;;;;;18.95;14.70;;;11.70;99.90;;;;;;5070261;28;20228;-76
2023/05/13 04:11:57;;;;;;;16.52;14.98;;;11.70;99.90;;;;;;5064060;28;20287;-77
2023/05/13 04:14:25;;;;;;;15.20;13.70;;;11.80;99.90;;;;;;5066376;28;20284;-77
2023/05/13 04:16:52;;;;;;;16.25;14.02;;;11.80;99.90;;;;;;5072004;28;20206;-77
2023/05/13 04:19:19;;;;;;;14.75;13.15;;;11.80;99.90;;;;;;5074865;28;20230;-76
2023/05/13 04:21:47;;;;;;;19.40;14.88;;;11.90;99.90;;;;;;5074040;28;20242;-77
2023/05/13 04:24:14;;;;;;;14.80;12.95;;;12.00;99.90;;;;;;5072147;28;20245;-76
2023/05/13 04:26:41;;;;;;;14.80;13.40;;;12.10;99.90;;;;;;5067729;28;20195;-78
2023/05/13 04:29:07;;;;;;;14.90;13.40;;;12.20;99.90;;;;;;5061592;28;20310;-76
2023/05/13 04:31:38;;;;;;;18.73;12.95;;;12.40;99.90;;;;;;5065846;28;20194;-78
2023/05/13 04:34:05;;;;;;;15.48;12.40;;;12.70;99.90;;;;;;5074531;28;20290;-76
2023/05/13 04:36:32;;;;;;;13.27;11.93;;;13.40;99.90;;;;;;5067138;28;20203;-77
2023/05/13 04:38:59;;;;;;;9.95;9.05;;;14.30;99.90;;;;;;5069616;28;20254;-78
2023/05/13 04:41:26;;;;;;;11.23;10.23;;;15.10;99.90;;;;;;5071720;28;20211;-78
2023/05/13 04:43:52;;;;;;;12.33;11.13;;;16.20;99.90;;;;;;5064216;28;20210;-77
2023/05/13 04:46:19;;;;;;;15.60;10.77;;;17.10;99.90;;;;;;5073916;28;20452;-76
2023/05/13 04:48:48;;;;;;;11.67;10.00;;;17.90;99.90;;;;;;5073044;28;20530;-76
2023/05/13 04:51:15;;;;;;;13.00;9.97;;;18.50;99.90;;;;;;5069770;28;20525;-77
2023/05/13 04:53:42;;;;;;;9.83;8.93;;;19.20;99.90;;;;;;5072635;28;20803;-77
2023/05/13 04:56:09;;;;;;;9.73;8.40;;;19.90;97.70;;;;;;5067772;28;20645;-77
2023/05/13 04:58:36;;;;;;;9.53;7.93;;;20.50;95.40;;;;;;5064786;28;20861;-79
2023/05/13 05:01:03;;;;;;;9.70;8.10;;;21.20;93.50;;;;;;5072710;28;20834;-76
2023/05/13 05:03:30;;;;;;;10.00;8.40;;;21.70;91.60;;;;;;5062679;28;20460;-78
2023/05/13 05:05:59;;;;;;;10.40;8.80;;;22.10;90.80;;;;;;5060141;28;20445;-77
2023/05/13 05:08:27;;;;;;;9.10;8.20;;;22.70;89.70;;;;;;5074940;28;20449;-77
2023/05/13 05:11:00;;;;;;;8.50;7.70;;;23.30;88.20;;;;;;5086322;28;20476;-78
2023/05/13 05:13:27;;;;;;;9.57;7.57;;;24.00;85.70;;;;;;5086304;28;20457;-77
2023/05/13 05:15:55;;;;;;;10.90;9.00;;;24.60;83.40;;;;;;5073130;28;20535;-75
2023/05/13 05:18:22;;;;;;;14.90;8.97;;;25.20;81.20;;;;;;5073682;28;20448;-77
2023/05/13 05:20:49;;;;;;;9.90;7.77;;;25.60;78.80;;;;;;5068035;28;20502;-77
2023/05/13 05:23:17;;;;;;;8.47;6.93;;;26.00;77.50;;;;;;5064926;28;20513;-78
2023/05/13 05:25:45;;;;;;;9.77;7.50;;;26.10;75.90;;;;;;5073244;28;20455;-77
2023/05/13 05:28:12;;;;;;;8.63;7.50;;;26.30;75.40;;;;;;5062294;28;20476;-77
2023/05/13 05:30:39;;;;;;;9.80;8.80;;;26.50;74.90;;;;;;5067184;28;20506;-77
2023/05/13 05:33:06;;;;;;;6.77;6.07;;;26.60;73.40;;;;;;5066261;28;20520;-75
2023/05/13 05:35:35;;;;;;;10.73;7.07;;;26.90;73.20;;;;;;5075011;28;20472;-78
2023/05/13 05:38:03;;;;;;;7.97;6.83;;;27.30;71.80;;;;;;5079183;28;20463;-76
2023/05/13 05:40:32;;;;;;;7.30;6.60;;;27.50;71.20;;;;;;5079330;28;20466;-76
2023/05/13 05:42:58;;;;;;;7.00;6.30;;;28.00;70.30;;;;;;5078806;28;20477;-75
2023/05/13 05:45:25;;;;;;;12.30;7.60;;;28.40;69.00;;;;;;5087565;28;20517;-77
2023/05/13 05:47:52;;;;;;;8.00;7.20;;;28.60;67.80;;;;;;5078760;28;20452;-77
2023/05/13 05:50:19;;;;;;;7.70;6.90;;;28.90;66.80;;;;;;5070621;28;20966;-79
2023/05/13 05:52:46;;;;;;;10.07;6.60;;;28.90;66.20;;;;;;5073741;28;20442;-76
2023/05/13 05:55:13;;;;;;;7.57;6.87;;;29.00;66.20;;;;;;5068636;28;21028;-78
2023/05/13 05:57:41;;;;;;;8.27;7.20;;;29.20;65.30;;;;;;5067067;28;20441;-77
2023/05/13 06:00:10;;;;;;;7.50;6.63;;;29.40;64.90;;;;;;5067790;28;20465;-78
2023/05/13 06:02:38;;;;;;;6.70;6.00;;;29.40;64.50;;;;;;5058408;28;20547;-77
2023/05/13 06:05:05;;;;;;;8.33;7.40;;;29.50;64.60;;;;;;5063514;28;20957;-77
2023/05/13 06:07:32;;;;;;;8.23;7.40;;;29.60;63.50;;;;;;5063285;28;20453;-76
2023/05/13 06:09:59;;;;;;;7.70;6.60;;;29.40;63.60;;;;;;5070054;28;20522;-76
2023/05/13 06:12:26;;;;;;;8.17;7.10;;;29.50;64.00;;;;;;5071653;28;20516;-77
2023/05/13 06:15:05;;;;;;;;;;;;;;;;;;;;;
2023/05/13 06:17:32;;;;;;;8.73;6.67;;;30.00;63.90;;;;;;5041682;28;20467;-76
2023/05/13 06:19:59;;;;;;;9.23;7.60;;;29.90;63.20;;;;;;5062655;28;20479;-75
2023/05/13 06:22:26;;;;;;;7.53;6.07;;;30.00;62.60;;;;;;5072254;28;20469;-78
2023/05/13 06:24:54;;;;;;;9.03;7.40;;;30.50;62.60;;;;;;5069209;28;20442;-74
2023/05/13 06:27:20;;;;;;;7.30;6.60;;;30.40;62.00;;;;;;5062527;28;20437;-77
2023/05/13 06:29:47;;;;;;;12.53;8.93;;;30.50;61.30;;;;;;5064204;28;20555;-76
2023/05/13 06:32:16;;;;;;;8.40;6.27;;;30.50;61.50;;;;;;5072146;28;20441;-76
2023/05/13 06:34:45;;;;;;;7.07;6.37;;;30.60;61.70;;;;;;5072037;28;20950;-77
2023/05/13 06:37:12;;;;;;;7.10;6.17;;;30.80;61.20;;;;;;5073215;28;20477;-77
2023/05/13 06:39:39;;;;;;;8.67;7.13;;;31.30;60.30;;;;;;5071838;28;20518;-76
2023/05/13 06:42:06;;;;;;;8.20;7.40;;;31.60;59.60;;;;;;5073655;28;20501;-76
2023/05/13 06:44:34;;;;;;;7.00;6.30;;;31.70;59.50;;;;;;5072311;28;20514;-74
2023/05/13 06:47:03;;;;;;;9.00;6.27;;;31.70;58.80;;;;;;5068458;28;20556;-76
2023/05/13 06:49:32;;;;;;;14.73;7.00;;;31.90;58.00;;;;;;5068048;28;20496;-77
2023/05/13 06:51:59;;;;;;;15.10;8.60;;;31.90;58.50;;;;;;5061367;28;20524;-77
2023/05/13 06:54:26;;;;;;;11.20;7.13;;;32.10;58.50;;;;;;5069283;28;20442;-74
2023/05/13 06:56:53;;;;;;;10.87;9.40;;;32.20;57.00;;;;;;5078222;28;20427;-75
2023/05/13 06:59:24;;;;;;;10.93;6.80;;;32.20;58.00;;;;;;5081227;28;20464;-74
2023/05/13 07:01:51;;;;;;;7.57;6.67;;;32.50;57.30;;;;;;5081604;28;20445;-75
2023/05/13 07:04:18;;;;;;;15.13;7.57;;;32.30;56.70;;;;;;5071680;28;20524;-72
2023/05/13 07:06:47;;;;;;;8.03;7.03;;;32.30;56.30;;;;;;5071536;28;20882;-77
2023/05/13 07:09:14;;;;;;;8.33;7.00;;;32.50;56.30;;;;;;5070903;28;20465;-73
2023/05/13 07:11:41;;;;;;;9.20;7.20;;;32.50;56.20;;;;;;5069379;28;20447;-73
2023/05/13 07:14:08;;;;;;;7.23;6.60;;;32.80;55.70;;;;;;5070865;28;20560;-76
2023/05/13 07:16:35;;;;;;;7.53;6.93;;;32.80;56.00;;;;;;5065469;28;20450;-75
2023/05/13 07:19:02;;;;;;;9.70;6.37;;;32.90;55.50;;;;;;5067850;28;20540;-72
2023/05/13 07:21:30;;;;;;;7.10;6.50;;;32.80;55.30;;;;;;5067764;28;20536;-75
2023/05/13 07:23:58;;;;;;;8.07;6.53;;;32.80;55.50;;;;;;5071807;28;20958;-75
2023/05/13 07:26:26;;;;;;;14.23;7.50;;;33.20;55.10;;;;;;5064307;28;20863;-73
2023/05/13 07:28:53;;;;;;;9.57;6.43;;;33.10;55.30;;;;;;5069487;28;20463;-74
2023/05/13 07:31:21;;;;;;;12.80;6.70;;;33.50;54.70;;;;;;5057252;28;20454;-76
2023/05/13 07:33:47;;;;;;;10.03;7.70;;;33.60;54.40;;;;;;5068263;28;20525;-74
2023/05/13 07:36:14;;;;;;;11.57;8.07;;;33.80;54.20;;;;;;5065122;28;20449;-72
2023/05/13 07:38:43;;;;;;;8.77;6.40;;;33.80;53.80;;;;;;5059927;28;20518;-74
2023/05/13 07:41:11;;;;;;;8.50;7.70;;;34.00;53.10;;;;;;5068798;28;20857;-69
2023/05/13 07:43:39;;;;;;;7.37;6.77;;;33.50;53.50;;;;;;5071392;28;20479;-74
2023/05/13 07:46:06;;;;;;;6.90;6.20;;;33.50;53.60;;;;;;5065683;28;20528;-74
2023/05/13 07:48:34;;;;;;;7.67;6.97;;;33.70;53.70;;;;;;5066278;28;20441;-77
2023/05/13 07:51:01;;;;;;;9.40;7.40;;;33.60;54.10;;;;;;5066883;28;20524;-75
2023/05/13 07:53:28;;;;;;;7.00;6.27;;;33.70;53.70;;;;;;5062145;28;20928;-73
2023/05/13 07:55:55;;;;;;;7.90;6.73;;;34.00;53.50;;;;;;5075338;28;20539;-73
2023/05/13 07:58:24;;;;;;;10.53;8.70;;;33.90;52.70;;;;;;5074801;28;20433;-74
2023/05/13 08:00:50;;;;;;;7.50;6.80;;;33.90;52.90;;;;;;5080154;28;20463;-75
2023/05/13 08:03:17;;;;;;;9.20;7.00;;;33.90;53.80;;;;;;5077514;28;20484;-73
2023/05/13 08:05:45;;;;;;;7.67;7.03;;;34.10;52.60;;;;;;5076769;28;20469;-74
2023/05/13 08:08:12;;;;;;;12.40;7.50;;;34.10;52.60;;;;;;5080743;28;20536;-73
2023/05/13 08:10:39;;;;;;;11.30;7.23;;;34.40;52.20;;;;;;5083617;28;20473;-75
2023/05/13 08:13:06;;;;;;;8.20;6.80;;;34.70;52.20;;;;;;5078520;28;20506;-74
2023/05/13 08:15:35;;;;;;;7.90;7.20;;;35.20;51.90;;;;;;5077464;28;20441;-78
2023/05/13 08:18:02;;;;;;;7.10;6.40;;;34.80;52.20;;;;;;5067438;28;20442;-76
2023/05/13 08:20:29;;;;;;;7.87;7.07;;;35.00;52.10;;;;;;5069417;28;20503;-76
2023/05/13 08:22:57;;;;;;;7.70;6.90;;;35.00;51.30;;;;;;5073363;28;20484;-78
2023/05/13 08:25:24;;;;;;;8.50;7.67;;;35.60;51.50;;;;;;5074786;28;20457;-75
2023/05/13 08:27:50;;;;;;;9.17;6.40;;;35.70;51.20;;;;;;5070742;28;20437;-78
2023/05/13 08:30:18;;;;;;;7.47;6.77;;;35.70;50.90;;;;;;5064182;28;20493;-75
2023/05/13 08:32:46;;;;;;;9.73;7.67;;;36.10;49.80;;;;;;5066953;28;20468;-76
2023/05/13 08:35:13;;;;;;;8.00;7.20;;;35.70;50.60;;;;;;5067457;28;20474;-73
2023/05/13 08:37:40;;;;;;;9.43;7.03;;;35.60;50.50;;;;;;5068303;28;20538;-74
2023/05/13 08:40:09;;;;;;;6.57;5.90;;;35.70;50.20;;;;;;5074755;28;20925;-73
2023/05/13 08:42:39;;;;;;;11.07;6.87;;;36.20;49.90;;;;;;5075475;28;20612;-74
2023/05/13 08:45:09;;;;;;;8.60;7.43;;;36.70;49.10;;;;;;5071766;28;20445;-71
2023/05/13 08:47:52;;;;;;;13.13;9.17;;;36.70;48.90;;;;;;5081210;28;20928;-75
2023/05/13 08:50:27;;;;;;;8.17;6.30;;;36.10;49.30;;;;;;5070744;28;20505;-74
2023/05/13 08:52:56;;;;;;;10.60;6.80;;;35.90;48.80;;;;;;5079605;28;20962;-74
2023/05/13 08:55:24;;;;;;;9.10;6.23;;;35.90;49.30;;;;;;5079204;28;20449;-75
2023/05/13 08:57:51;;;;;;;8.20;6.40;;;35.80;49.20;;;;;;5074537;28;20541;-74
2023/05/13 09:00:19;;;;;;;9.67;6.10;;;35.80;49.10;;;;;;5059264;28;20556;-73
2023/05/13 09:02:49;;;;;;;7.93;5.40;;;35.90;49.40;;;;;;5071025;28;20507;-76
2023/05/13 09:05:16;;;;;;;7.03;5.90;;;36.00;49.40;;;;;;5074267;28;20540;-78
2023/05/13 09:07:44;;;;;;;7.43;5.63;;;36.00;47.10;;;;;;5071531;28;20850;-76
2023/05/13 09:10:11;;;;;;;6.47;5.90;;;35.80;47.80;;;;;;5077520;28;20507;-76
2023/05/13 09:12:49;;;;;;;7.60;6.50;;;35.70;48.70;;;;;;5072084;28;20479;-75
2023/05/13 09:15:18;;;;;;;11.67;5.17;;;35.50;47.20;;;;;;5070894;28;20874;-76
2023/05/13 09:17:48;;;;;;;7.13;6.43;;;35.40;46.80;;;;;;5069838;28;20524;-77
2023/05/13 09:20:16;;;;;;;6.70;5.77;;;34.40;46.30;;;;;;5073402;28;20575;-76
2023/05/13 09:22:49;;;;;;;10.90;5.57;;;34.00;46.40;;;;;;5074403;28;20527;-75
2023/05/13 09:25:19;;;;;;;6.97;5.80;;;33.70;47.00;;;;;;5063844;28;20525;-75
2023/05/13 09:27:48;;;;;;;5.83;5.23;;;32.70;47.40;;;;;;5067673;28;20495;-73
2023/05/13 09:30:16;;;;;;;9.50;4.80;;;32.70;48.10;;;;;;5064781;28;20476;-76
2023/05/13 09:32:43;;;;;;;13.63;5.50;;;32.40;48.60;;;;;;5074927;28;20519;-74
2023/05/13 09:35:15;;;;;;;5.53;5.03;;;32.30;49.50;;;;;;5076671;28;20507;-75
2023/05/13 09:37:45;;;;;;;6.03;5.33;;;32.50;49.40;;;;;;5069998;28;20452;-73
2023/05/13 09:40:15;;;;;;;9.40;5.40;;;32.90;48.60;;;;;;5067697;28;20839;-76
2023/05/13 09:42:43;;;;;;;5.73;4.83;;;33.40;49.20;;;;;;5063712;28;20485;-75
2023/05/13 09:45:11;;;;;;;8.37;5.07;;;33.70;48.30;;;;;;5068629;28;20449;-73
2023/05/13 09:47:39;;;;;;;6.27;4.87;;;33.50;47.60;;;;;;5062780;28;20530;-74
2023/05/13 09:52:45;;;;;;;7.10;5.70;;;32.80;49.50;;;;;;1426350;26;20510;-81
2023/05/13 09:55:13;;;;;;;8.80;4.80;;;32.70;48.30;;;;;;5042727;28;20467;-81
2023/05/13 09:57:41;;;;;;;7.50;5.17;;;32.60;48.40;;;;;;5046126;28;21059;-81
2023/05/13 10:00:09;;;;;;;9.13;4.90;;;32.60;49.80;;;;;;5045791;28;20679;-82
2023/05/13 10:02:36;;;;;;;5.50;5.00;;;32.70;47.80;;;;;;5046282;28;20454;-83
2023/05/13 10:05:03;;;;;;;8.30;5.37;;;32.40;47.90;;;;;;5045181;28;20532;-80
2023/05/13 10:07:33;;;;;;;7.63;4.63;;;32.30;48.80;;;;;;5046359;28;20827;-80
2023/05/13 10:10:02;;;;;;;7.47;4.97;;;32.30;47.60;;;;;;5044909;28;20455;-83
2023/05/13 10:12:33;;;;;;;7.60;4.70;;;32.30;49.60;;;;;;5045127;28;20443;-81
2023/05/13 10:15:02;;;;;;;5.40;4.60;;;32.00;47.30;;;;;;5046033;28;20956;-83
2023/05/13 10:17:30;;;;;;;6.00;4.77;;;31.90;47.90;;;;;;5046099;28;20474;-82
2023/05/13 10:19:57;;;;;;;10.80;4.93;;;31.60;49.00;;;;;;5045514;28;21027;-81
2023/05/13 10:22:28;;;;;;;4.97;4.50;;;30.90;49.00;;;;;;5046441;28;20600;-82
2023/05/13 10:24:57;;;;;;;11.60;5.00;;;30.80;50.30;;;;;;5047914;28;20470;-81
2023/05/13 10:27:27;;;;;;;5.87;4.83;;;30.60;49.20;;;;;;5047939;28;20458;-82
2023/05/13 10:29:56;;;;;;;5.30;4.90;;;30.10;50.30;;;;;;5047006;28;20905;-83
2023/05/13 10:32:24;;;;;;;4.97;4.57;;;30.10;50.90;;;;;;5048218;28;20447;-82
2023/05/13 10:34:56;;;;;;;10.70;4.67;;;29.80;51.70;;;;;;5047797;28;20530;-82
2023/05/13 10:37:55;;;;;;;5.10;4.70;;;29.40;52.90;;;;;;5048504;28;20431;-83
2023/05/13 10:41:10;;;;;;;7.90;5.40;;;28.70;52.00;;;;;;5033236;28;20475;-81
2023/05/13 10:43:37;;;;;;;5.97;4.70;;;27.90;53.50;;;;;;5022269;28;20574;-83
2023/05/13 10:46:08;;;;;;;5.87;4.77;;;27.40;55.50;;;;;;5045624;28;20451;-83
2023/05/13 10:48:42;;;;;;;8.30;5.40;;;27.20;55.50;;;;;;5046008;28;21117;-80
2023/05/13 10:51:10;;;;;;;7.63;5.30;;;27.20;57.00;;;;;;5045487;28;20450;-83
2023/05/13 10:53:42;;;;;;;9.07;4.90;;;27.20;55.80;;;;;;5045686;28;20442;-82
2023/05/13 10:56:09;;;;;;;8.00;5.10;;;27.20;57.10;;;;;;5049932;28;20848;-79
2023/05/13 10:58:37;;;;;;;5.60;5.00;;;27.10;57.00;;;;;;5046420;28;20478;-83
2023/05/13 11:01:16;;;;;;;6.53;5.80;;;27.30;56.30;;;;;;5046536;28;20447;-83
2023/05/13 11:03:52;;;;;;;6.53;5.00;;;27.30;55.20;;;;;;5046602;28;20517;-80
2023/05/13 11:06:21;;;;;;;9.00;4.23;;;27.10;53.30;;;;;;5051664;28;20446;-82
2023/05/13 11:08:49;;;;;;;6.20;5.70;;;26.70;52.70;;;;;;5053028;28;20482;-83
2023/05/13 11:11:31;;;;;;;7.00;4.17;;;26.50;53.40;;;;;;5057468;28;20485;-83
2023/05/13 11:14:08;;;;;;;9.10;5.37;;;26.40;54.40;;;;;;5056110;28;20513;-85
2023/05/13 11:16:37;;;;;;;8.80;4.97;;;26.30;55.20;;;;;;5055495;28;20442;-84
2023/05/13 11:19:08;;;;;;;6.97;5.20;;;26.40;55.30;;;;;;5053958;28;20443;-82
2023/05/13 11:21:38;;;;;;;6.60;5.00;;;26.60;56.00;;;;;;5055550;28;20437;-81
2023/05/13 11:24:16;;;;;;;6.60;4.80;;;26.60;54.90;;;;;;5044909;28;20316;-83
2023/05/13 11:27:24;;;;;;;6.60;4.70;;;26.50;54.90;;;;;;5060960;28;20532;-84
2023/05/13 11:29:53;;;;;;;5.50;4.40;;;26.30;55.80;;;;;;5054493;28;20518;-82
2023/05/13 11:32:54;;;;;;;6.13;4.80;;;26.40;55.20;;;;;;5059234;28;20506;-82
2023/05/13 11:35:22;;;;;;;5.43;4.90;;;26.40;54.70;;;;;;5052057;28;20442;-82
2023/05/13 11:37:49;;;;;;;14.77;6.80;;;26.30;54.90;;;;;;5052571;28;20474;-82
2023/05/13 11:40:22;;;;;;;6.30;5.57;;;26.50;55.70;;;;;;5047629;28;20447;-84
2023/05/13 11:42:50;;;;;;;8.17;5.17;;;26.70;56.20;;;;;;5053324;28;20451;-84
2023/05/13 11:45:18;;;;;;;6.00;5.20;;;26.50;55.50;;;;;;5050676;28;20478;-84
2023/05/13 11:47:45;;;;;;;8.30;4.53;;;26.10;55.10;;;;;;5053778;28;20443;-85
2023/05/13 11:50:20;;;;;;;9.00;4.87;;;26.10;56.10;;;;;;5051613;28;20463;-86
2023/05/13 11:52:52;;;;;;;4.47;3.93;;;26.10;54.10;;;;;;5053227;28;20473;-84
2023/05/13 11:55:26;;;;;;;5.27;4.43;;;26.40;55.10;;;;;;5052078;28;20936;-83
2023/05/13 11:57:53;;;;;;;6.03;4.57;;;26.70;55.00;;;;;;5052812;28;20437;-81
2023/05/13 12:00:26;;;;;;;6.80;5.00;;;26.90;53.00;;;;;;5048841;28;20536;-84
2023/05/13 12:02:53;;;;;;;5.80;4.20;;;26.80;52.70;;;;;;5051870;28;20432;-83
2023/05/13 12:05:22;;;;;;;9.20;5.23;;;26.80;50.70;;;;;;5052280;28;20502;-82
2023/05/13 12:07:49;;;;;;;6.60;4.23;;;26.70;50.30;;;;;;5049048;28;20459;-84
2023/05/13 12:10:17;;;;;;;10.00;4.40;;;26.40;50.90;;;;;;5051734;28;20467;-85
2023/05/13 12:12:45;;;;;;;8.50;4.73;;;26.20;52.50;;;;;;5051583;28;20446;-83
2023/05/13 12:15:14;;;;;;;5.60;4.70;;;26.10;52.90;;;;;;5051484;28;20509;-83
2023/05/13 12:17:41;;;;;;;4.77;4.27;;;26.20;53.10;;;;;;5051954;28;20458;-83
2023/05/13 12:20:11;;;;;;;5.70;5.20;;;26.50;54.30;;;;;;5050576;28;20485;-82
2023/05/13 12:22:55;;;;;;;5.90;5.00;;;26.50;54.00;;;;;;5048360;28;20439;-84
2023/05/13 12:25:40;;;;;;;4.00;3.70;;;26.50;54.70;;;;;;5051340;28;20481;-84
2023/05/13 12:28:08;;;;;;;6.87;4.37;;;26.70;54.40;;;;;;5049953;28;20443;-84
2023/05/13 12:30:36;;;;;;;5.27;4.80;;;26.90;54.50;;;;;;5050568;28;20473;-85
2023/05/13 12:33:04;;;;;;;9.77;5.10;;;26.80;53.80;;;;;;5044864;28;20423;-84
2023/05/13 12:35:31;;;;;;;6.90;4.90;;;26.70;53.60;;;;;;5042099;28;20443;-83
2023/05/13 12:38:04;;;;;;;5.00;4.50;;;26.50;54.40;;;;;;5047689;28;20465;-85
2023/05/13 12:40:32;;;;;;;5.43;4.60;;;26.30;53.10;;;;;;5051880;28;20478;-83
2023/05/13 12:42:59;;;;;;;5.93;4.50;;;26.00;53.00;;;;;;5051414;28;20459;-83
2023/05/13 12:45:30;;;;;;;5.93;4.70;;;25.80;52.90;;;;;;5051816;28;20470;-85
2023/05/13 12:47:58;;;;;;;8.63;4.50;;;25.70;52.50;;;;;;5053457;28;20441;-83
2023/05/13 12:50:25;;;;;;;5.90;4.80;;;25.60;53.00;;;;;;5051782;28;20494;-84